sensor_id;sensor_type;location;lat;lon;timestamp;P1;durP1;ratioP1;P2;durP2;ratioP2
13240;SDS011;6687;47.790;7.322;2022-07-06T06:13:44;1.20;;;1.08;;
13240;SDS011;6687;47.790;7.322;2022-07-06T06:16:11;0.95;;;0.90;;
13240;SDS011;6687;47.790;7.322;2022-07-06T06:18:38;1.05;;;0.80;;
13240;SDS011;6687;47.790;7.322;2022-07-06T06:21:05;0.98;;;0.98;;
13240;SDS011;6687;47.790;7.322;2022-07-06T06:23:31;1.25;;;1.17;;
13240;SDS011;6687;47.790;7.322;2022-07-06T06:25:58;1.20;;;1.02;;
13240;SDS011;6687;47.790;7.322;2022-07-06T06:28:25;1.20;;;1.10;;
13240;SDS011;6687;47.790;7.322;2022-07-06T06:30:53;0.70;;;0.70;;
13240;SDS011;6687;47.790;7.322;2022-07-06T06:33:19;1.25;;;1.15;;
13240;SDS011;6687;47.790;7.322;2022-07-06T06:35:48;1.05;;;0.95;;
13240;SDS011;6687;47.790;7.322;2022-07-06T06:38:16;1.23;;;0.90;;
13240;SDS011;6687;47.790;7.322;2022-07-06T06:40:43;1.27;;;1.17;;
13240;SDS011;6687;47.790;7.322;2022-07-06T06:43:10;1.15;;;1.15;;
13240;SDS011;6687;47.790;7.322;2022-07-06T06:45:37;1.02;;;0.95;;
13240;SDS011;6687;47.790;7.322;2022-07-06T06:48:05;0.95;;;0.93;;
13240;SDS011;6687;47.790;7.322;2022-07-06T06:50:32;1.25;;;1.15;;
13240;SDS011;6687;47.790;7.322;2022-07-06T06:52:59;1.30;;;1.20;;
13240;SDS011;6687;47.790;7.322;2022-07-06T06:55:25;0.85;;;0.85;;
13240;SDS011;6687;47.790;7.322;2022-07-06T06:57:52;1.10;;;1.00;;
13240;SDS011;6687;47.790;7.322;2022-07-06T07:00:19;1.08;;;0.98;;
13240;SDS011;6687;47.790;7.322;2022-07-06T07:02:46;2.53;;;1.58;;
13240;SDS011;6687;47.790;7.322;2022-07-06T07:05:14;1.30;;;1.20;;
13240;SDS011;6687;47.790;7.322;2022-07-06T07:07:41;1.55;;;1.30;;
13240;SDS011;6687;47.790;7.322;2022-07-06T07:10:08;1.13;;;1.00;;
13240;SDS011;6687;47.790;7.322;2022-07-06T07:12:35;0.70;;;0.70;;
13240;SDS011;6687;47.790;7.322;2022-07-06T07:15:09;1.15;;;1.00;;
13240;SDS011;6687;47.790;7.322;2022-07-06T07:17:35;1.00;;;1.00;;
13240;SDS011;6687;47.790;7.322;2022-07-06T07:20:02;1.05;;;1.00;;
13240;SDS011;6687;47.790;7.322;2022-07-06T07:22:31;2.13;;;1.20;;
13240;SDS011;6687;47.790;7.322;2022-07-06T07:24:58;3.17;;;1.23;;
13240;SDS011;6687;47.790;7.322;2022-07-06T07:27:25;1.10;;;1.10;;
13240;SDS011;6687;47.790;7.322;2022-07-06T07:29:51;1.00;;;1.00;;
13240;SDS011;6687;47.790;7.322;2022-07-06T07:32:19;0.75;;;0.75;;
13240;SDS011;6687;47.790;7.322;2022-07-06T07:34:45;1.35;;;1.20;;
13240;SDS011;6687;47.790;7.322;2022-07-06T07:37:12;3.30;;;1.35;;
13240;SDS011;6687;47.790;7.322;2022-07-06T07:39:40;1.40;;;1.30;;
13240;SDS011;6687;47.790;7.322;2022-07-06T07:42:07;1.20;;;1.10;;
13240;SDS011;6687;47.790;7.322;2022-07-06T07:44:34;1.10;;;1.10;;
13240;SDS011;6687;47.790;7.322;2022-07-06T07:47:01;1.10;;;1.02;;
13240;SDS011;6687;47.790;7.322;2022-07-06T07:49:27;1.13;;;1.05;;
13240;SDS011;6687;47.790;7.322;2022-07-06T07:51:54;4.13;;;1.30;;
13240;SDS011;6687;47.790;7.322;2022-07-06T07:54:21;1.95;;;1.33;;
13240;SDS011;6687;47.790;7.322;2022-07-06T07:56:49;1.23;;;1.20;;
13240;SDS011;6687;47.790;7.322;2022-07-06T07:59:16;0.93;;;0.93;;
13240;SDS011;6687;47.790;7.322;2022-07-06T08:01:43;1.38;;;1.27;;
13240;SDS011;6687;47.790;7.322;2022-07-06T08:04:10;0.90;;;0.90;;
13240;SDS011;6687;47.790;7.322;2022-07-06T08:06:36;1.20;;;1.20;;
13240;SDS011;6687;47.790;7.322;2022-07-06T08:09:03;1.10;;;1.05;;
13240;SDS011;6687;47.790;7.322;2022-07-06T08:11:32;1.00;;;1.00;;
13240;SDS011;6687;47.790;7.322;2022-07-06T08:14:00;1.50;;;1.00;;
13240;SDS011;6687;47.790;7.322;2022-07-06T08:16:28;1.05;;;1.00;;
13240;SDS011;6687;47.790;7.322;2022-07-06T08:18:55;1.33;;;1.23;;
13240;SDS011;6687;47.790;7.322;2022-07-06T08:21:22;1.10;;;0.98;;
13240;SDS011;6687;47.790;7.322;2022-07-06T08:23:49;1.30;;;1.20;;
13240;SDS011;6687;47.790;7.322;2022-07-06T08:26:15;1.88;;;0.98;;
13240;SDS011;6687;47.790;7.322;2022-07-06T08:28:42;2.75;;;1.00;;
13240;SDS011;6687;47.790;7.322;2022-07-06T08:31:10;1.17;;;1.08;;
13240;SDS011;6687;47.790;7.322;2022-07-06T08:33:37;1.17;;;1.10;;
13240;SDS011;6687;47.790;7.322;2022-07-06T08:36:04;1.25;;;1.00;;
13240;SDS011;6687;47.790;7.322;2022-07-06T08:38:31;0.88;;;0.88;;
13240;SDS011;6687;47.790;7.322;2022-07-06T08:40:58;1.60;;;1.05;;
13240;SDS011;6687;47.790;7.322;2022-07-06T08:43:25;1.45;;;1.10;;
13240;SDS011;6687;47.790;7.322;2022-07-06T08:45:53;1.10;;;1.08;;
13240;SDS011;6687;47.790;7.322;2022-07-06T08:48:22;1.10;;;1.10;;
13240;SDS011;6687;47.790;7.322;2022-07-06T08:50:49;1.15;;;1.13;;
13240;SDS011;6687;47.790;7.322;2022-07-06T08:53:18;1.63;;;1.52;;
13240;SDS011;6687;47.790;7.322;2022-07-06T08:55:45;1.10;;;1.10;;
13240;SDS011;6687;47.790;7.322;2022-07-06T08:58:12;1.38;;;1.27;;
13240;SDS011;6687;47.790;7.322;2022-07-06T09:00:40;1.10;;;1.02;;
13240;SDS011;6687;47.790;7.322;2022-07-06T09:03:07;2.00;;;1.20;;
13240;SDS011;6687;47.790;7.322;2022-07-06T09:05:40;1.15;;;1.08;;
13240;SDS011;6687;47.790;7.322;2022-07-06T09:08:10;1.60;;;1.50;;
13240;SDS011;6687;47.790;7.322;2022-07-06T09:10:37;1.50;;;1.30;;
13240;SDS011;6687;47.790;7.322;2022-07-06T09:13:04;1.75;;;0.80;;
13240;SDS011;6687;47.790;7.322;2022-07-06T09:15:32;1.17;;;1.10;;
13240;SDS011;6687;47.790;7.322;2022-07-06T09:17:59;1.35;;;1.10;;
13240;SDS011;6687;47.790;7.322;2022-07-06T09:20:26;2.25;;;1.10;;
13240;SDS011;6687;47.790;7.322;2022-07-06T09:22:56;1.38;;;1.27;;
13240;SDS011;6687;47.790;7.322;2022-07-06T09:25:24;1.20;;;1.10;;
13240;SDS011;6687;47.790;7.322;2022-07-06T09:27:51;2.72;;;1.00;;
13240;SDS011;6687;47.790;7.322;2022-07-06T09:30:19;1.38;;;1.30;;
13240;SDS011;6687;47.790;7.322;2022-07-06T09:32:48;1.00;;;0.70;;
13240;SDS011;6687;47.790;7.322;2022-07-06T09:35:20;1.02;;;1.02;;
13240;SDS011;6687;47.790;7.322;2022-07-06T09:37:57;1.80;;;1.10;;
13240;SDS011;6687;47.790;7.322;2022-07-06T09:40:26;1.05;;;0.95;;
13240;SDS011;6687;47.790;7.322;2022-07-06T09:43:06;0.90;;;0.90;;
13240;SDS011;6687;47.790;7.322;2022-07-06T09:45:37;0.90;;;0.90;;
13240;SDS011;6687;47.790;7.322;2022-07-06T09:48:05;1.05;;;0.90;;
13240;SDS011;6687;47.790;7.322;2022-07-06T09:50:37;1.27;;;1.05;;
13240;SDS011;6687;47.790;7.322;2022-07-06T09:53:06;1.08;;;1.08;;
13240;SDS011;6687;47.790;7.322;2022-07-06T09:55:33;1.30;;;1.20;;
13240;SDS011;6687;47.790;7.322;2022-07-06T09:58:00;1.00;;;1.00;;
13240;SDS011;6687;47.790;7.322;2022-07-06T10:00:27;2.50;;;1.00;;
13240;SDS011;6687;47.790;7.322;2022-07-06T10:02:54;1.00;;;1.00;;
13240;SDS011;6687;47.790;7.322;2022-07-06T10:05:21;1.40;;;1.30;;
13240;SDS011;6687;47.790;7.322;2022-07-06T10:07:52;1.63;;;1.20;;
13240;SDS011;6687;47.790;7.322;2022-07-06T10:10:23;0.95;;;0.95;;
13240;SDS011;6687;47.790;7.322;2022-07-06T10:12:51;0.80;;;0.80;;
13240;SDS011;6687;47.790;7.322;2022-07-06T10:15:21;1.02;;;0.95;;
13240;SDS011;6687;47.790;7.322;2022-07-06T10:17:49;1.05;;;1.05;;
13240;SDS011;6687;47.790;7.322;2022-07-06T10:20:17;1.08;;;1.05;;
13240;SDS011;6687;47.790;7.322;2022-07-06T10:22:44;1.10;;;1.10;;
13240;SDS011;6687;47.790;7.322;2022-07-06T10:25:11;1.77;;;1.02;;
13240;SDS011;6687;47.790;7.322;2022-07-06T10:27:40;1.45;;;1.38;;
13240;SDS011;6687;47.790;7.322;2022-07-06T10:30:09;2.05;;;0.93;;
13240;SDS011;6687;47.790;7.322;2022-07-06T10:32:37;0.95;;;0.95;;
13240;SDS011;6687;47.790;7.322;2022-07-06T10:35:05;0.82;;;0.82;;
13240;SDS011;6687;47.790;7.322;2022-07-06T10:37:33;0.82;;;0.82;;
13240;SDS011;6687;47.790;7.322;2022-07-06T10:40:00;1.42;;;1.33;;
13240;SDS011;6687;47.790;7.322;2022-07-06T10:42:46;2.10;;;0.85;;
13240;SDS011;6687;47.790;7.322;2022-07-06T10:45:20;1.27;;;1.23;;
13240;SDS011;6687;47.790;7.322;2022-07-06T10:48:16;2.17;;;1.15;;
13240;SDS011;6687;47.790;7.322;2022-07-06T10:50:46;0.88;;;0.88;;
13240;SDS011;6687;47.790;7.322;2022-07-06T10:53:14;1.23;;;1.13;;
13240;SDS011;6687;47.790;7.322;2022-07-06T10:55:43;2.47;;;1.13;;
13240;SDS011;6687;47.790;7.322;2022-07-06T10:58:14;1.10;;;1.05;;
13240;SDS011;6687;47.790;7.322;2022-07-06T11:00:50;2.65;;;1.20;;
13240;SDS011;6687;47.790;7.322;2022-07-06T11:03:31;0.95;;;0.88;;
13240;SDS011;6687;47.790;7.322;2022-07-06T11:05:59;1.05;;;0.90;;
13240;SDS011;6687;47.790;7.322;2022-07-06T11:11:19;1.25;;;1.23;;
13240;SDS011;6687;47.790;7.322;2022-07-06T11:13:49;0.80;;;0.80;;
13240;SDS011;6687;47.790;7.322;2022-07-06T11:16:17;0.82;;;0.82;;
13240;SDS011;6687;47.790;7.322;2022-07-06T11:18:49;0.80;;;0.80;;
13240;SDS011;6687;47.790;7.322;2022-07-06T11:21:31;0.98;;;0.98;;
13240;SDS011;6687;47.790;7.322;2022-07-06T11:23:59;2.92;;;1.10;;
13240;SDS011;6687;47.790;7.322;2022-07-06T11:26:26;1.30;;;1.20;;
13240;SDS011;6687;47.790;7.322;2022-07-06T11:28:55;1.13;;;1.13;;
13240;SDS011;6687;47.790;7.322;2022-07-06T11:31:24;1.83;;;1.20;;
13240;SDS011;6687;47.790;7.322;2022-07-06T11:33:51;1.17;;;1.17;;
13240;SDS011;6687;47.790;7.322;2022-07-06T11:36:18;0.90;;;0.90;;
13240;SDS011;6687;47.790;7.322;2022-07-06T11:38:46;0.70;;;0.70;;
13240;SDS011;6687;47.790;7.322;2022-07-06T11:41:14;1.05;;;1.05;;
13240;SDS011;6687;47.790;7.322;2022-07-06T11:43:41;1.85;;;1.17;;
13240;SDS011;6687;47.790;7.322;2022-07-06T11:46:27;2.40;;;1.10;;
13240;SDS011;6687;47.790;7.322;2022-07-06T11:48:56;1.10;;;1.10;;
13240;SDS011;6687;47.790;7.322;2022-07-06T11:51:24;2.95;;;1.08;;
13240;SDS011;6687;47.790;7.322;2022-07-06T11:53:52;1.85;;;1.15;;
13240;SDS011;6687;47.790;7.322;2022-07-06T11:56:19;0.93;;;0.93;;
13240;SDS011;6687;47.790;7.322;2022-07-06T11:58:50;1.15;;;1.08;;
13240;SDS011;6687;47.790;7.322;2022-07-06T12:01:18;0.93;;;0.85;;
13240;SDS011;6687;47.790;7.322;2022-07-06T12:03:49;2.08;;;1.23;;
13240;SDS011;6687;47.790;7.322;2022-07-06T12:06:17;1.85;;;1.02;;
13240;SDS011;6687;47.790;7.322;2022-07-06T12:08:46;1.10;;;1.05;;
13240;SDS011;6687;47.790;7.322;2022-07-06T12:11:18;1.30;;;1.20;;
13240;SDS011;6687;47.790;7.322;2022-07-06T12:13:46;1.00;;;0.70;;
13240;SDS011;6687;47.790;7.322;2022-07-06T12:16:13;1.92;;;1.27;;
13240;SDS011;6687;47.790;7.322;2022-07-06T12:18:42;1.48;;;1.23;;
13240;SDS011;6687;47.790;7.322;2022-07-06T12:21:12;1.48;;;1.38;;
13240;SDS011;6687;47.790;7.322;2022-07-06T12:23:42;1.00;;;1.00;;
13240;SDS011;6687;47.790;7.322;2022-07-06T12:26:10;1.10;;;1.10;;
13240;SDS011;6687;47.790;7.322;2022-07-06T12:28:38;1.50;;;1.40;;
13240;SDS011;6687;47.790;7.322;2022-07-06T12:31:05;1.30;;;1.20;;
13240;SDS011;6687;47.790;7.322;2022-07-06T12:33:32;1.20;;;1.10;;
13240;SDS011;6687;47.790;7.322;2022-07-06T12:36:08;1.38;;;1.27;;
13240;SDS011;6687;47.790;7.322;2022-07-06T12:38:44;1.33;;;1.30;;
13240;SDS011;6687;47.790;7.322;2022-07-06T12:41:26;1.08;;;1.08;;
13240;SDS011;6687;47.790;7.322;2022-07-06T12:44:04;1.55;;;0.82;;
13240;SDS011;6687;47.790;7.322;2022-07-06T12:46:33;1.00;;;1.00;;
13240;SDS011;6687;47.790;7.322;2022-07-06T12:49:03;1.00;;;1.00;;
13240;SDS011;6687;47.790;7.322;2022-07-06T12:51:52;1.20;;;1.20;;
13240;SDS011;6687;47.790;7.322;2022-07-06T12:54:20;2.03;;;1.20;;
13240;SDS011;6687;47.790;7.322;2022-07-06T12:59:40;3.15;;;1.13;;
13240;SDS011;6687;47.790;7.322;2022-07-06T13:02:09;1.08;;;1.08;;
13240;SDS011;6687;47.790;7.322;2022-07-06T13:04:43;1.65;;;1.10;;
13240;SDS011;6687;47.790;7.322;2022-07-06T13:07:18;1.25;;;1.23;;
13240;SDS011;6687;47.790;7.322;2022-07-06T13:09:45;1.40;;;1.30;;
13240;SDS011;6687;47.790;7.322;2022-07-06T13:12:12;1.10;;;1.10;;
13240;SDS011;6687;47.790;7.322;2022-07-06T13:14:39;0.95;;;0.95;;
13240;SDS011;6687;47.790;7.322;2022-07-06T13:17:05;2.28;;;1.17;;
13240;SDS011;6687;47.790;7.322;2022-07-06T13:19:32;1.10;;;1.10;;
13240;SDS011;6687;47.790;7.322;2022-07-06T13:21:59;1.45;;;1.35;;
13240;SDS011;6687;47.790;7.322;2022-07-06T13:24:27;1.88;;;1.30;;
13240;SDS011;6687;47.790;7.322;2022-07-06T13:26:54;1.40;;;1.40;;
13240;SDS011;6687;47.790;7.322;2022-07-06T13:29:21;1.20;;;1.20;;
13240;SDS011;6687;47.790;7.322;2022-07-06T13:31:48;2.47;;;1.20;;
13240;SDS011;6687;47.790;7.322;2022-07-06T13:34:15;1.05;;;1.05;;
13240;SDS011;6687;47.790;7.322;2022-07-06T13:36:42;1.00;;;1.00;;
13240;SDS011;6687;47.790;7.322;2022-07-06T13:39:09;1.13;;;1.13;;
13240;SDS011;6687;47.790;7.322;2022-07-06T13:41:38;2.00;;;1.05;;
13240;SDS011;6687;47.790;7.322;2022-07-06T13:44:05;1.17;;;1.13;;
13240;SDS011;6687;47.790;7.322;2022-07-06T13:46:34;1.70;;;1.20;;
13240;SDS011;6687;47.790;7.322;2022-07-06T13:49:02;1.27;;;1.23;;
13240;SDS011;6687;47.790;7.322;2022-07-06T13:51:29;1.50;;;1.42;;
13240;SDS011;6687;47.790;7.322;2022-07-06T13:53:57;1.40;;;1.30;;
13240;SDS011;6687;47.790;7.322;2022-07-06T13:56:24;3.08;;;1.40;;
13240;SDS011;6687;47.790;7.322;2022-07-06T13:58:52;2.92;;;1.17;;
13240;SDS011;6687;47.790;7.322;2022-07-06T14:01:20;1.65;;;1.38;;
13240;SDS011;6687;47.790;7.322;2022-07-06T14:03:47;2.08;;;1.20;;
13240;SDS011;6687;47.790;7.322;2022-07-06T14:06:14;1.20;;;1.20;;
13240;SDS011;6687;47.790;7.322;2022-07-06T14:08:42;1.20;;;1.20;;
13240;SDS011;6687;47.790;7.322;2022-07-06T14:11:09;1.42;;;1.40;;
13240;SDS011;6687;47.790;7.322;2022-07-06T14:13:36;1.35;;;1.25;;
13240;SDS011;6687;47.790;7.322;2022-07-06T14:16:05;1.05;;;1.05;;
13240;SDS011;6687;47.790;7.322;2022-07-06T14:18:32;1.30;;;1.20;;
13240;SDS011;6687;47.790;7.322;2022-07-06T14:20:59;1.02;;;0.98;;
13240;SDS011;6687;47.790;7.322;2022-07-06T14:23:26;1.35;;;1.25;;
13240;SDS011;6687;47.790;7.322;2022-07-06T14:25:54;2.05;;;1.33;;
13240;SDS011;6687;47.790;7.322;2022-07-06T14:28:21;1.10;;;1.10;;
13240;SDS011;6687;47.790;7.322;2022-07-06T14:30:48;1.42;;;1.33;;
13240;SDS011;6687;47.790;7.322;2022-07-06T14:33:16;1.35;;;1.27;;
13240;SDS011;6687;47.790;7.322;2022-07-06T14:35:44;1.27;;;1.20;;
13240;SDS011;6687;47.790;7.322;2022-07-06T14:38:12;1.35;;;1.30;;
13240;SDS011;6687;47.790;7.322;2022-07-06T14:40:40;2.35;;;1.30;;
13240;SDS011;6687;47.790;7.322;2022-07-06T14:43:07;1.30;;;1.13;;
13240;SDS011;6687;47.790;7.322;2022-07-06T14:45:34;1.38;;;1.38;;
13240;SDS011;6687;47.790;7.322;2022-07-06T14:48:01;1.63;;;1.52;;
13240;SDS011;6687;47.790;7.322;2022-07-06T14:50:29;1.13;;;1.13;;
13240;SDS011;6687;47.790;7.322;2022-07-06T14:52:55;1.20;;;1.20;;
13240;SDS011;6687;47.790;7.322;2022-07-06T14:55:22;1.10;;;1.10;;
13240;SDS011;6687;47.790;7.322;2022-07-06T14:57:49;2.47;;;1.33;;
13240;SDS011;6687;47.790;7.322;2022-07-06T15:00:16;1.98;;;1.50;;
13240;SDS011;6687;47.790;7.322;2022-07-06T15:02:43;1.17;;;1.17;;
13240;SDS011;6687;47.790;7.322;2022-07-06T15:05:10;1.10;;;1.10;;
13240;SDS011;6687;47.790;7.322;2022-07-06T15:07:39;1.20;;;1.13;;
13240;SDS011;6687;47.790;7.322;2022-07-06T15:10:06;2.10;;;1.50;;
13240;SDS011;6687;47.790;7.322;2022-07-06T15:12:34;1.23;;;1.10;;
13240;SDS011;6687;47.790;7.322;2022-07-06T15:15:01;1.52;;;1.42;;
13240;SDS011;6687;47.790;7.322;2022-07-06T15:17:28;1.20;;;1.20;;
13240;SDS011;6687;47.790;7.322;2022-07-06T15:19:56;1.30;;;1.20;;
13240;SDS011;6687;47.790;7.322;2022-07-06T15:22:23;1.10;;;1.00;;
13240;SDS011;6687;47.790;7.322;2022-07-06T15:24:51;1.27;;;1.20;;
13240;SDS011;6687;47.790;7.322;2022-07-06T15:27:18;1.25;;;1.17;;
13240;SDS011;6687;47.790;7.322;2022-07-06T15:29:45;1.23;;;1.13;;
13240;SDS011;6687;47.790;7.322;2022-07-06T15:32:11;1.10;;;1.10;;
13240;SDS011;6687;47.790;7.322;2022-07-06T15:34:38;0.93;;;0.93;;
13240;SDS011;6687;47.790;7.322;2022-07-06T15:37:05;2.03;;;1.20;;
13240;SDS011;6687;47.790;7.322;2022-07-06T15:39:31;1.13;;;1.02;;
13240;SDS011;6687;47.790;7.322;2022-07-06T15:41:59;1.10;;;1.10;;
13240;SDS011;6687;47.790;7.322;2022-07-06T15:44:26;1.20;;;1.10;;
13240;SDS011;6687;47.790;7.322;2022-07-06T15:46:53;0.90;;;0.90;;
13240;SDS011;6687;47.790;7.322;2022-07-06T15:49:19;1.08;;;1.00;;
13240;SDS011;6687;47.790;7.322;2022-07-06T15:51:46;1.00;;;1.00;;
13240;SDS011;6687;47.790;7.322;2022-07-06T15:54:13;1.00;;;1.00;;
13240;SDS011;6687;47.790;7.322;2022-07-06T15:56:40;1.25;;;1.15;;
13240;SDS011;6687;47.790;7.322;2022-07-06T15:59:08;0.82;;;0.82;;
13240;SDS011;6687;47.790;7.322;2022-07-06T16:01:35;0.93;;;0.93;;
13240;SDS011;6687;47.790;7.322;2022-07-06T16:04:01;1.23;;;1.00;;
13240;SDS011;6687;47.790;7.322;2022-07-06T16:06:28;1.10;;;1.10;;
13240;SDS011;6687;47.790;7.322;2022-07-06T16:08:55;1.35;;;1.02;;
13240;SDS011;6687;47.790;7.322;2022-07-06T16:11:22;1.52;;;1.15;;
13240;SDS011;6687;47.790;7.322;2022-07-06T16:13:48;0.98;;;0.90;;
13240;SDS011;6687;47.790;7.322;2022-07-06T16:16:16;2.85;;;0.88;;
13240;SDS011;6687;47.790;7.322;2022-07-06T16:18:43;1.02;;;0.85;;
13240;SDS011;6687;47.790;7.322;2022-07-06T16:21:10;1.30;;;1.20;;
13240;SDS011;6687;47.790;7.322;2022-07-06T16:23:37;2.10;;;1.33;;
13240;SDS011;6687;47.790;7.322;2022-07-06T16:26:05;1.65;;;1.00;;
13240;SDS011;6687;47.790;7.322;2022-07-06T16:28:32;1.02;;;0.95;;
13240;SDS011;6687;47.790;7.322;2022-07-06T16:30:59;1.70;;;0.90;;
13240;SDS011;6687;47.790;7.322;2022-07-06T16:33:28;1.05;;;0.70;;
13240;SDS011;6687;47.790;7.322;2022-07-06T16:35:59;0.95;;;0.88;;
13240;SDS011;6687;47.790;7.322;2022-07-06T16:38:27;1.00;;;1.00;;
13240;SDS011;6687;47.790;7.322;2022-07-06T16:40:53;1.10;;;0.90;;
13240;SDS011;6687;47.790;7.322;2022-07-06T16:43:20;0.95;;;0.95;;
13240;SDS011;6687;47.790;7.322;2022-07-06T16:45:47;1.02;;;1.02;;
13240;SDS011;6687;47.790;7.322;2022-07-06T16:48:13;1.73;;;1.02;;
13240;SDS011;6687;47.790;7.322;2022-07-06T16:50:41;2.50;;;0.77;;
13240;SDS011;6687;47.790;7.322;2022-07-06T16:53:08;2.90;;;1.05;;
13240;SDS011;6687;47.790;7.322;2022-07-06T16:55:35;1.15;;;0.95;;
13240;SDS011;6687;47.790;7.322;2022-07-06T16:58:02;0.50;;;0.50;;
13240;SDS011;6687;47.790;7.322;2022-07-06T17:00:29;0.30;;;0.30;;
13240;SDS011;6687;47.790;7.322;2022-07-06T17:02:58;0.65;;;0.45;;
13240;SDS011;6687;47.790;7.322;2022-07-06T17:05:25;1.45;;;0.40;;
13240;SDS011;6687;47.790;7.322;2022-07-06T17:07:53;0.50;;;0.50;;
13240;SDS011;6687;47.790;7.322;2022-07-06T17:10:19;1.40;;;0.30;;
13240;SDS011;6687;47.790;7.322;2022-07-06T17:12:46;0.50;;;0.50;;
13240;SDS011;6687;47.790;7.322;2022-07-06T17:15:13;0.40;;;0.40;;
13240;SDS011;6687;47.790;7.322;2022-07-06T17:17:40;0.77;;;0.55;;
13240;SDS011;6687;47.790;7.322;2022-07-06T17:20:07;1.08;;;0.30;;
13240;SDS011;6687;47.790;7.322;2022-07-06T17:22:34;0.40;;;0.40;;
13240;SDS011;6687;47.790;7.322;2022-07-06T17:25:02;0.17;;;0.17;;
13240;SDS011;6687;47.790;7.322;2022-07-06T17:27:29;1.35;;;0.40;;
13240;SDS011;6687;47.790;7.322;2022-07-06T17:29:56;0.32;;;0.32;;
13240;SDS011;6687;47.790;7.322;2022-07-06T17:32:23;0.30;;;0.30;;
13240;SDS011;6687;47.790;7.322;2022-07-06T17:34:49;0.45;;;0.38;;
13240;SDS011;6687;47.790;7.322;2022-07-06T17:37:16;0.43;;;0.40;;
13240;SDS011;6687;47.790;7.322;2022-07-06T17:39:43;0.20;;;0.20;;
13240;SDS011;6687;47.790;7.322;2022-07-06T17:42:11;0.30;;;0.30;;
13240;SDS011;6687;47.790;7.322;2022-07-06T17:44:39;0.30;;;0.30;;
13240;SDS011;6687;47.790;7.322;2022-07-06T17:47:06;0.20;;;0.20;;
13240;SDS011;6687;47.790;7.322;2022-07-06T17:49:32;0.77;;;0.20;;
13240;SDS011;6687;47.790;7.322;2022-07-06T17:51:59;0.43;;;0.35;;
13240;SDS011;6687;47.790;7.322;2022-07-06T17:54:26;0.30;;;0.30;;
13240;SDS011;6687;47.790;7.322;2022-07-06T17:56:53;0.22;;;0.20;;
13240;SDS011;6687;47.790;7.322;2022-07-06T17:59:21;0.30;;;0.30;;
13240;SDS011;6687;47.790;7.322;2022-07-06T18:01:48;0.50;;;0.50;;
13240;SDS011;6687;47.790;7.322;2022-07-06T18:04:14;0.30;;;0.30;;
13240;SDS011;6687;47.790;7.322;2022-07-06T18:06:41;0.50;;;0.30;;
13240;SDS011;6687;47.790;7.322;2022-07-06T18:09:08;0.45;;;0.30;;
13240;SDS011;6687;47.790;7.322;2022-07-06T18:11:34;0.50;;;0.50;;
13240;SDS011;6687;47.790;7.322;2022-07-06T18:14:01;0.40;;;0.40;;
13240;SDS011;6687;47.790;7.322;2022-07-06T18:16:29;0.40;;;0.40;;
13240;SDS011;6687;47.790;7.322;2022-07-06T18:18:57;0.40;;;0.40;;
13240;SDS011;6687;47.790;7.322;2022-07-06T18:21:24;0.52;;;0.52;;
13240;SDS011;6687;47.790;7.322;2022-07-06T18:23:50;1.10;;;0.38;;
13240;SDS011;6687;47.790;7.322;2022-07-06T18:26:17;0.43;;;0.30;;
13240;SDS011;6687;47.790;7.322;2022-07-06T18:28:44;0.60;;;0.20;;
13240;SDS011;6687;47.790;7.322;2022-07-06T18:31:10;0.22;;;0.22;;
13240;SDS011;6687;47.790;7.322;2022-07-06T18:33:39;0.40;;;0.30;;
13240;SDS011;6687;47.790;7.322;2022-07-06T18:36:06;0.20;;;0.20;;
13240;SDS011;6687;47.790;7.322;2022-07-06T18:38:32;0.30;;;0.30;;
13240;SDS011;6687;47.790;7.322;2022-07-06T18:40:59;0.38;;;0.35;;
13240;SDS011;6687;47.790;7.322;2022-07-06T18:43:26;0.32;;;0.30;;
13240;SDS011;6687;47.790;7.322;2022-07-06T18:45:53;0.85;;;0.40;;
13240;SDS011;6687;47.790;7.322;2022-07-06T18:48:20;0.50;;;0.50;;
13240;SDS011;6687;47.790;7.322;2022-07-06T18:50:49;0.40;;;0.40;;
13240;SDS011;6687;47.790;7.322;2022-07-06T18:53:16;0.40;;;0.40;;
13240;SDS011;6687;47.790;7.322;2022-07-06T18:55:44;1.75;;;0.60;;
13240;SDS011;6687;47.790;7.322;2022-07-06T18:58:11;1.02;;;0.50;;
13240;SDS011;6687;47.790;7.322;2022-07-06T19:00:38;0.50;;;0.50;;
13240;SDS011;6687;47.790;7.322;2022-07-06T19:03:06;1.65;;;0.68;;
13240;SDS011;6687;47.790;7.322;2022-07-06T19:05:33;0.57;;;0.40;;
13240;SDS011;6687;47.790;7.322;2022-07-06T19:08:02;0.70;;;0.40;;
13240;SDS011;6687;47.790;7.322;2022-07-06T19:10:29;0.65;;;0.60;;
13240;SDS011;6687;47.790;7.322;2022-07-06T19:12:56;0.40;;;0.40;;
13240;SDS011;6687;47.790;7.322;2022-07-06T19:15:22;0.40;;;0.40;;
13240;SDS011;6687;47.790;7.322;2022-07-06T19:17:49;0.75;;;0.35;;
13240;SDS011;6687;47.790;7.322;2022-07-06T19:20:18;0.50;;;0.50;;
13240;SDS011;6687;47.790;7.322;2022-07-06T19:22:45;1.63;;;0.50;;
13240;SDS011;6687;47.790;7.322;2022-07-06T19:25:13;0.75;;;0.45;;
13240;SDS011;6687;47.790;7.322;2022-07-06T19:27:42;0.98;;;0.35;;
13240;SDS011;6687;47.790;7.322;2022-07-06T19:30:09;0.30;;;0.30;;
13240;SDS011;6687;47.790;7.322;2022-07-06T19:32:37;0.63;;;0.40;;
13240;SDS011;6687;47.790;7.322;2022-07-06T19:35:04;0.47;;;0.47;;
13240;SDS011;6687;47.790;7.322;2022-07-06T19:37:31;0.20;;;0.20;;
13240;SDS011;6687;47.790;7.322;2022-07-06T19:39:58;0.47;;;0.45;;
13240;SDS011;6687;47.790;7.322;2022-07-06T19:42:26;0.70;;;0.70;;
13240;SDS011;6687;47.790;7.322;2022-07-06T19:44:53;0.28;;;0.28;;
13240;SDS011;6687;47.790;7.322;2022-07-06T19:47:20;0.40;;;0.40;;
13240;SDS011;6687;47.790;7.322;2022-07-06T19:49:46;0.65;;;0.50;;
13240;SDS011;6687;47.790;7.322;2022-07-06T19:52:13;0.20;;;0.20;;
13240;SDS011;6687;47.790;7.322;2022-07-06T19:54:40;0.90;;;0.32;;
13240;SDS011;6687;47.790;7.322;2022-07-06T19:57:06;0.88;;;0.50;;
13240;SDS011;6687;47.790;7.322;2022-07-06T19:59:35;0.85;;;0.30;;
13240;SDS011;6687;47.790;7.322;2022-07-06T20:02:02;1.38;;;0.50;;
13240;SDS011;6687;47.790;7.322;2022-07-06T20:04:29;0.57;;;0.43;;
13240;SDS011;6687;47.790;7.322;2022-07-06T20:06:56;1.88;;;0.55;;
13240;SDS011;6687;47.790;7.322;2022-07-06T20:09:23;2.08;;;0.40;;
13240;SDS011;6687;47.790;7.322;2022-07-06T20:11:49;0.43;;;0.40;;
13240;SDS011;6687;47.790;7.322;2022-07-06T20:14:16;0.55;;;0.50;;
13240;SDS011;6687;47.790;7.322;2022-07-06T20:16:44;0.75;;;0.50;;
13240;SDS011;6687;47.790;7.322;2022-07-06T20:19:11;0.40;;;0.40;;
13240;SDS011;6687;47.790;7.322;2022-07-06T20:21:40;0.45;;;0.32;;
13240;SDS011;6687;47.790;7.322;2022-07-06T20:24:07;0.40;;;0.30;;
13240;SDS011;6687;47.790;7.322;2022-07-06T20:26:35;0.40;;;0.40;;
13240;SDS011;6687;47.790;7.322;2022-07-06T20:29:02;0.38;;;0.38;;
13240;SDS011;6687;47.790;7.322;2022-07-06T20:31:29;0.52;;;0.40;;
13240;SDS011;6687;47.790;7.322;2022-07-06T20:33:57;0.63;;;0.50;;
13240;SDS011;6687;47.790;7.322;2022-07-06T20:36:24;0.93;;;0.30;;
13240;SDS011;6687;47.790;7.322;2022-07-06T20:38:51;0.40;;;0.40;;
13240;SDS011;6687;47.790;7.322;2022-07-06T20:41:18;1.40;;;0.40;;
13240;SDS011;6687;47.790;7.322;2022-07-06T20:43:44;0.30;;;0.30;;
13240;SDS011;6687;47.790;7.322;2022-07-06T20:46:11;0.50;;;0.50;;
13240;SDS011;6687;47.790;7.322;2022-07-06T20:48:38;0.40;;;0.40;;
13240;SDS011;6687;47.790;7.322;2022-07-06T20:51:06;0.50;;;0.50;;
13240;SDS011;6687;47.790;7.322;2022-07-06T20:53:33;0.30;;;0.30;;
13240;SDS011;6687;47.790;7.322;2022-07-06T20:55:59;0.40;;;0.30;;
13240;SDS011;6687;47.790;7.322;2022-07-06T20:58:26;0.32;;;0.30;;
13240;SDS011;6687;47.790;7.322;2022-07-06T21:00:54;0.60;;;0.40;;
13240;SDS011;6687;47.790;7.322;2022-07-06T21:03:20;0.45;;;0.40;;
13240;SDS011;6687;47.790;7.322;2022-07-06T21:05:47;0.20;;;0.20;;
13240;SDS011;6687;47.790;7.322;2022-07-06T21:08:15;0.50;;;0.50;;
13240;SDS011;6687;47.790;7.322;2022-07-06T21:10:42;0.30;;;0.30;;
13240;SDS011;6687;47.790;7.322;2022-07-06T21:13:09;0.30;;;0.30;;
13240;SDS011;6687;47.790;7.322;2022-07-06T21:15:35;0.38;;;0.38;;
13240;SDS011;6687;47.790;7.322;2022-07-06T21:18:02;0.93;;;0.40;;
13240;SDS011;6687;47.790;7.322;2022-07-06T21:20:29;0.30;;;0.30;;
13240;SDS011;6687;47.790;7.322;2022-07-06T21:22:56;0.47;;;0.47;;